Trees, Louisiana
Current Conditions -  °F | °C
As of 1:53 PM on Friday 24 Oct 2014 (Local Time) from KDTN Reporting Station
Clear Clear  
Wind Chill: 72°   Ceiling: Unl
Heat Index: 72°   Visibility: 10mi
Dew Point: 49°   Wind: 5mph
Humidity: 44%   Direction: 310°NW
Pressure: 30.13"   Gusts: NA
Location:  32.8582°N, 93.9626°W
Report Text: KDTN 241853Z 31004KT 10SM CLR 22/09 A3013 RMK AO2 SLP202 T02220094
Loading
Personal Weather Stations






























Interactive Weather Map
Tropical Storm Tracking
New forecast layout! Learn more

10-Day Weather Forecast

Advertisements
Track Severe Weather on mobile